• Join FlightAware (Why Join?)
  • Login
  • US Flag 
11:35AM EDT


 

Airport Tracker/Info


-or-


 

Live Flight TrackerFlight Track Log ✈ AMF702 ✈ 06-Sep-2013 ✈ KOPF - KBED

Flight Track Log - Related Links

Times and Time Zones

All times are in EDT time to prevent confusion due to time zone crossing. See the AMF702 flight status page for this flight to view local times or setup timezone preferences in your user account.

Time Position Orientation Groundspeed Altitude Reporting Facility
EDT Latitude Longitude Course Direction KTS MPH feet Rate Location/Type
12:19PM 25.9114 -80.2614 89° East 143 165 500  Level Miami Center
12:20PM 25.9125 -80.2131 89° East 169 194 2,100 1,200 Climbing Miami Center
12:21PM 25.9158 -80.1486 87° East 206 237 3,000 960 Climbing Miami Center
12:22PM 25.9225 -80.1303 68° East 205 236 3,400 1,200 Climbing Miami Center
12:22PM 25.9625 -80.1267 North 223 257 4,200 780 Climbing Miami Center
12:23PM 25.9708 -80.1269 358° North 218 251 4,200 1,140 Level Miami Center
12:24PM 25.9839 -80.1919 283° West 225 259 5,500 1,500 Climbing Miami Center
12:24PM 25.9919 -80.1992 321° Northwest 224 258 5,700 1,260 Climbing Miami Center
12:25PM 25.9989 -80.2639 277° West 221 254 6,800 1,260 Climbing Miami Center
12:25PM 26.0031 -80.2664 332° Northwest 224 258 7,000 1,200 Climbing Miami Center
12:26PM 26.0458 -80.3117 316° Northwest 215 247 8,200 1,080 Climbing Miami Center
12:27PM 26.0908 -80.3475 324° Northwest 223 257 9,100 900 Climbing Miami Center
12:27PM 26.0992 -80.3478 358° North 221 254 9,100 1,080 Level Miami Center
12:28PM 26.1506 -80.3842 328° Northwest 226 260 10,300 1,260 Climbing Miami Center
12:29PM 26.2022 -80.4133 333° Northwest 235 270 11,700 1,200 Climbing Miami Center
12:30PM 26.2411 -80.4378 331° Northwest 219 252 12,700 1,320 Climbing Miami Center
12:31PM 26.2969 -80.4694 333° Northwest 191 220 14,400 1,320 Climbing Miami Center
12:32PM 26.3464 -80.4964 334° Northwest 191 220 15,400 1,200 Climbing Miami Center
12:33PM 26.3936 -80.5211 335° Northwest 191 220 16,800 1,200 Climbing Miami Center
12:34PM 26.4411 -80.5433 337° Northwest 191 220 17,800 600 Climbing Miami Center
12:35PM 26.4950 -80.5683 337° Northwest 198 228 18,000 120 Climbing Miami Center
12:36PM 26.5589 -80.5958 339° North 223 257 18,100  Climbing Miami Center
12:37PM 26.6228 -80.6306 334° Northwest 247 284 18,000 -60 Descending Miami Center
12:38PM 26.6908 -80.6583 340° North 257 296 18,000  Level Miami Center
12:39PM 26.7592 -80.6861 340° North 257 296 18,000  Level Miami Center
12:40PM 26.8253 -80.7114 341° North 263 303 18,000  Level Miami Center
12:41PM 26.8956 -80.7369 342° North 269 310 18,000 660 Level Miami Center
12:42PM 26.9617 -80.7650 339° North 263 303 19,400 1,320 Climbing Miami Center
12:43PM 27.0153 -80.7853 341° North 234 269 20,700 780 Climbing Miami Center
12:44PM 27.0692 -80.8058 341° North 209 241 21,000 60 Climbing Miami Center
12:45PM 27.1311 -80.8311 340° North 209 241 20,900  Descending Miami Center
12:46PM 27.1972 -80.8592 339° North 226 260 21,000  Climbing Miami Center
12:47PM 27.2675 -80.8850 342° North 248 285 21,000 -60 Level Miami Center
12:48PM 27.3356 -80.9108 341° North 255 293 20,900 -60 Descending Miami Center
12:49PM 27.4078 -80.9367 342° North 266 306 20,900  Level Miami Center
12:50PM 27.4781 -80.9672 339° North 266 306 20,900  Level Miami Center
12:51PM 27.5461 -80.9908 343° North 266 306 20,900  Level Miami Center
12:52PM 27.6164 -81.0192 340° North 266 306 20,900  Level Miami Center
12:53PM 27.6867 -81.0428 343° North 266 306 20,900  Level Miami Center
12:54PM 27.7547 -81.0711 340° North 266 306 20,900  Level Miami Center
12:55PM 27.8269 -81.1019 339° North 266 306 20,900  Level Miami Center
12:56PM 27.8931 -81.1231 344° North 266 306 20,900  Level Miami Center
12:57PM 27.9694 -81.1519 342° North 266 306 21,000  Climbing Miami Center
12:58PM 28.0397 -81.1756 343° North 266 306 21,000  Level Miami Center
12:59PM 28.1097 -81.1994 343° North 260 299 21,000  Level Miami Center
01:00PM 28.1739 -81.2186 345° North 260 299 21,000  Level Miami Center
01:02PM 28.3336 -81.2678 345° North 261 300 21,000  Level Jacksonville Center
01:03PM 28.4028 -81.2925 343° North 261 300 21,000 -60 Level Jacksonville Center
01:04PM 28.4719 -81.3128 346° North 261 300 20,900  Descending Jacksonville Center
01:05PM 28.5433 -81.3375 343° North 261 300 21,000  Climbing Jacksonville Center
01:06PM 28.6122 -81.3556 347° North 261 300 21,000 -60 Level Jacksonville Center
01:07PM 28.6875 -81.3614 356° North 261 300 20,900  Descending Jacksonville Center
01:08PM 28.7606 -81.3675 356° North 261 300 21,000  Climbing Jacksonville Center
01:09PM 28.8381 -81.3733 356° North 256 295 20,900  Descending Jacksonville Center
01:10PM 28.9028 -81.3747 359° North 256 295 21,100  Climbing Jacksonville Center
01:11PM 28.9800 -81.3853 353° North 256 295 20,900  Descending Jacksonville Center
01:12PM 29.0531 -81.3892 357° North 256 295 21,100  Climbing Jacksonville Center
01:13PM 29.1242 -81.3975 354° North 256 295 21,000 -60 Descending Jacksonville Center
01:14PM 29.1994 -81.3986 359° North 256 295 21,000 -60 Level Jacksonville Center
01:15PM 29.2683 -81.4072 354° North 256 295 20,900 -60 Descending Jacksonville Center
01:16PM 29.3414 -81.4156 354° North 256 295 20,900 60 Level Jacksonville Center
01:17PM 29.4147 -81.4239 354° North 256 295 21,100  Climbing Jacksonville Center
01:18PM 29.4856 -81.4278 357° North 256 295 21,000 -60 Descending Jacksonville Center
01:19PM 29.5567 -81.4314 357° North 256 295 21,000 -60 Level Jacksonville Center
01:20PM 29.6297 -81.4328 359° North 256 295 20,900  Descending Jacksonville Center
01:21PM 29.7028 -81.4292 North 256 295 21,000  Climbing Jacksonville Center
01:22PM 29.7758 -81.4233 North 256 295 21,000  Level Jacksonville Center
01:23PM 29.8467 -81.4175 North 256 295 21,000  Level Jacksonville Center
01:24PM 29.9136 -81.4214 357° North 256 295 21,000 -60 Level Jacksonville Center
01:25PM 29.9825 -81.4322 352° North 256 295 20,900  Descending Jacksonville Center
01:26PM 30.0536 -81.4431 352° North 256 295 21,000  Climbing Jacksonville Center
01:27PM 30.1228 -81.4589 349° North 256 295 21,000  Level Jacksonville Center
01:28PM 30.1939 -81.4675 354° North 256 295 21,100 -60 Climbing Jacksonville Center
01:29PM 30.2669 -81.4783 353° North 256 295 20,900 -120 Descending Jacksonville Center
01:30PM 30.3381 -81.4894 352° North 256 295 20,900  Level Jacksonville Center
01:31PM 30.4089 -81.4739 11° North 256 295 20,900 60 Level Jacksonville Center
01:32PM 30.4817 -81.4486 17° North 256 295 21,100 60 Climbing Jacksonville Center
01:33PM 30.5525 -81.4258 15° North 256 295 21,100 -60 Level Jacksonville Center
01:34PM 30.6275 -81.4031 15° North 256 295 21,000 -120 Descending Jacksonville Center
01:35PM 30.7003 -81.3778 17° North 261 300 20,900 -60 Descending Jacksonville Center
01:36PM 30.7750 -81.3547 15° North 261 300 20,900  Level Jacksonville Center
01:37PM 30.8458 -81.3319 15° North 261 300 21,000 60 Climbing Jacksonville Center
01:38PM 30.9186 -81.3089 15° North 261 300 21,100  Climbing Jacksonville Center
01:39PM 30.9892 -81.2883 14° North 261 300 21,100  Level Jacksonville Center
01:40PM 31.0619 -81.2678 14° North 261 300 21,100 -60 Level Jacksonville Center
01:41PM 31.1369 -81.2444 15° North 261 300 21,000  Descending Jacksonville Center
01:42PM 31.2078 -81.2239 14° North 261 300 21,100  Climbing Jacksonville Center
01:43PM 31.2825 -81.2006 15° North 261 300 21,000 -60 Descending Jacksonville Center
01:44PM 31.3531 -81.1653 23° Northeast 261 300 21,000  Level Jacksonville Center
01:45PM 31.4211 -81.1056 37° Northeast 271 312 21,000  Level Jacksonville Center
01:46PM 31.4850 -81.0556 34° Northeast 276 318 21,000  Level Jacksonville Center
01:47PM 31.5450 -81.0106 33° Northeast 276 318 21,100  Climbing Jacksonville Center
01:48PM 31.6172 -80.9603 31° Northeast 271 312 21,000  Descending Jacksonville Center
01:49PM 31.6772 -80.9175 31° Northeast 271 312 21,100  Climbing Jacksonville Center
01:50PM 31.7475 -80.8647 33° Northeast 271 312 21,000 -60 Descending Jacksonville Center
01:51PM 31.8156 -80.8217 28° Northeast 271 312 21,000  Level Jacksonville Center
01:52PM 31.8714 -80.7814 31° Northeast 264 304 21,000  Level Jacksonville Center
01:53PM 31.9433 -80.7258 33° Northeast 274 315 21,000  Level Jacksonville Center
01:54PM 32.0053 -80.6778 33° Northeast 265 305 21,000  Level Jacksonville Center
01:55PM 32.0608 -80.6350 33° Northeast 265 305 21,000  Level Jacksonville Center
01:56PM 32.1331 -80.5864 30° Northeast 270 311 21,000  Level Jacksonville Center
01:57PM 32.1906 -80.5408 34° Northeast 264 304 21,000  Level Jacksonville Center
01:58PM 32.2589 -80.5047 24° Northeast 259 298 21,000  Level Jacksonville Center
01:59PM 32.3206 -80.4589 32° Northeast 259 298 21,000  Level Jacksonville Center
02:00PM 32.3867 -80.4153 29° Northeast 259 298 21,000  Level Jacksonville Center
02:01PM 32.4503 -80.3717 30° Northeast 264 304 21,000  Level Jacksonville Center
02:02PM 32.5122 -80.3306 29° Northeast 259 298 21,000  Level Jacksonville Center
02:03PM 32.5717 -80.2769 37° Northeast 259 298 21,000  Level Jacksonville Center
02:04PM 32.6333 -80.2308 32° Northeast 259 298 21,000  Level Jacksonville Center
02:05PM 32.6950 -80.1822 34° Northeast 265 305 21,000  Level Jacksonville Center
02:06PM 32.7564 -80.1333 34° Northeast 265 305 21,000  Level Jacksonville Center
02:07PM 32.8203 -80.0894 30° Northeast 260 299 21,000  Level Jacksonville Center
02:08PM 32.8861 -80.0453 29° Northeast 260 299 21,000  Level Jacksonville Center
02:09PM 32.9433 -79.9917 38° Northeast 260 299 21,000  Level Jacksonville Center
02:10PM 33.0003 -79.9328 41° Northeast 265 305 21,000  Level Jacksonville Center
02:11PM 33.0656 -79.8686 39° Northeast 271 312 21,000  Level Jacksonville Center
02:12PM 33.1247 -79.8144 37° Northeast 271 312 21,000  Level Jacksonville Center
02:13PM 33.1861 -79.7578 38° Northeast 271 312 21,000  Level Jacksonville Center
02:14PM 33.2431 -79.7036 38° Northeast 271 312 21,000  Level Jacksonville Center
02:15PM 33.3000 -79.6444 41° Northeast 271 312 21,000  Level Jacksonville Center
02:16PM 33.3592 -79.5878 39° Northeast 271 312 21,000  Level Jacksonville Center
02:17PM 33.4203 -79.5331 37° Northeast 271 312 21,000  Level Jacksonville Center
02:18PM 33.4792 -79.4761 39° Northeast 271 312 21,000  Level Jacksonville Center
02:19PM 33.5381 -79.4189 39° Northeast 271 312 21,000  Level Jacksonville Center
02:20PM 33.5992 -79.3617 38° Northeast 271 312 21,000  Level Jacksonville Center
02:21PM 33.6581 -79.3044 39° Northeast 271 312 21,000  Level Jacksonville Center
02:22PM 33.7128 -79.2472 41° Northeast 271 312 21,000  Level Jacksonville Center
02:23PM 33.7717 -79.1900 39° Northeast 266 306 21,000  Level Jacksonville Center
02:25PM 33.9025 -79.0569 40° Northeast 277 319 21,000  Level Washington Center
02:26PM 33.9647 -78.9994 37° Northeast 280 322 21,000  Level Washington Center
02:27PM 34.0250 -78.9394 40° Northeast 274 315 21,000  Level Washington Center
02:28PM 34.0850 -78.8792 40° Northeast 286 329 21,000  Level Washington Center
02:29PM 34.1469 -78.8239 36° Northeast 280 322 21,000  Level Washington Center
02:30PM 34.2069 -78.7633 40° Northeast 275 316 21,000  Level Washington Center
02:31PM 34.2692 -78.7006 40° Northeast 275 316 21,000  Level Washington Center
02:32PM 34.3292 -78.6400 40° Northeast 275 316 21,100  Climbing Washington Center
02:33PM 34.3872 -78.5742 43° Northeast 280 322 21,000 -60 Descending Washington Center
02:34PM 34.4450 -78.5108 42° Northeast 280 322 21,000  Level Washington Center
02:35PM 34.5047 -78.4550 38° Northeast 280 322 21,000  Level Washington Center
02:36PM 34.5708 -78.3942 37° Northeast 285 328 21,000  Level Washington Center
02:37PM 34.6328 -78.3333 39° Northeast 280 322 21,100  Climbing Washington Center
02:38PM 34.6928 -78.2719 40° Northeast 280 322 21,100 -60 Level Washington Center
02:39PM 34.7506 -78.2058 43° Northeast 280 322 21,000 -60 Descending Washington Center
02:40PM 34.8017 -78.1467 44° Northeast 285 328 21,000  Level Washington Center
02:41PM 34.8594 -78.0775 44° Northeast 280 322 21,000  Level Washington Center
02:42PM 34.9192 -78.0161 40° Northeast 275 316 21,000  Level Washington Center
02:43PM 34.9811 -77.9547 39° Northeast 275 316 21,000  Level Washington Center
02:44PM 35.0406 -77.8981 38° Northeast 270 311 21,000  Level Washington Center
02:45PM 35.0981 -77.8361 41° Northeast 270 311 21,000  Level Washington Center
02:46PM 35.1575 -77.7769 39° Northeast 270 311 21,000  Level Washington Center
02:47PM 35.2150 -77.7175 40° Northeast 270 311 21,000  Level Washington Center
02:48PM 35.2744 -77.6578 39° Northeast 264 304 21,000  Level Washington Center
02:49PM 35.3339 -77.5983 39° Northeast 264 304 21,000  Level Washington Center
02:50PM 35.3933 -77.5436 37° Northeast 264 304 21,000  Level Washington Center
02:51PM 35.4567 -77.4942 32° Northeast 264 304 21,100  Climbing Washington Center
02:52PM 35.5139 -77.4344 40° Northeast 264 304 21,000 -60 Descending Washington Center
02:53PM 35.5772 -77.3772 36° Northeast 264 304 21,000  Level Washington Center
02:54PM 35.6406 -77.3300 31° Northeast 264 304 21,000  Level Washington Center
02:55PM 35.7061 -77.2750 34° Northeast 269 310 21,000  Level Washington Center
02:56PM 35.7653 -77.2200 37° Northeast 269 310 21,000  Level Washington Center
02:57PM 35.8286 -77.1650 35° Northeast 269 310 21,000  Level Washington Center
02:57PM 35.8286 -77.1650 35° Northeast 269 310 21,000  Level Washington Center
02:58PM 35.8836 -77.1047 42° Northeast 269 310 21,000  Level Washington Center
02:58PM 35.8836 -77.1047 42° Northeast 269 310 21,000  Level Washington Center
02:59PM 35.9450 -77.0417 40° Northeast 269 310 21,000  Level Washington Center
02:59PM 35.9450 -77.0417 40° Northeast 269 310 21,000  Level Washington Center
03:00PM 36.0083 -76.9811 38° Northeast 275 316 21,000  Level Washington Center
03:00PM 36.0083 -76.9811 38° Northeast 275 316 21,000  Level Washington Center
03:01PM 36.0397 -76.9508 38° Northeast 283 326 21,000  Level Washington Center
03:01PM 36.0397 -76.9508 38° Northeast 283 326 21,000  Level Washington Center
03:01PM 36.0778 -76.9181 35° Northeast 284 327 21,000  Level Washington Center
03:01PM 36.0778 -76.9181 35° Northeast 284 327 21,000  Level Washington Center
03:02PM 36.1306 -76.8625 40° Northeast 281 323 21,000  Level Washington Center
03:02PM 36.1306 -76.8625 40° Northeast 281 323 21,000  Level Washington Center
03:03PM 36.1958 -76.8069 34° Northeast 281 323 21,000  Level Washington Center
03:03PM 36.1958 -76.8069 34° Northeast 281 323 21,000  Level Washington Center
03:03PM 36.2064 -76.8019 21° North 280 322 21,000  Level Washington Center
03:03PM 36.2064 -76.8019 21° North 280 322 21,000  Level Washington Center
03:04PM 36.2589 -76.7486 39° Northeast 276 318 21,000  Level Washington Center
03:04PM 36.2589 -76.7486 39° Northeast 276 318 21,000  Level Washington Center
03:04PM 36.2675 -76.7436 25° Northeast 278 320 21,000  Level Washington Center
03:04PM 36.2675 -76.7436 25° Northeast 278 320 21,000  Level Washington Center
03:05PM 36.3306 -76.6853 37° Northeast 278 320 21,000  Level Washington Center
03:05PM 36.3306 -76.6853 37° Northeast 278 320 21,000  Level Washington Center
03:06PM 36.3853 -76.6369 35° Northeast 271 312 21,000  Level Washington Center
03:06PM 36.3853 -76.6369 35° Northeast 271 312 21,000  Level Washington Center
03:06PM 36.3978 -76.6267 33° Northeast 278 320 21,000  Level Washington Center
03:06PM 36.3978 -76.6267 33° Northeast 278 320 21,000  Level Washington Center
03:07PM 36.4483 -76.5808 36° Northeast 271 312 21,000  Level Washington Center
03:07PM 36.4483 -76.5808 36° Northeast 271 312 21,000  Level Washington Center
03:07PM 36.4608 -76.5708 33° Northeast 281 323 21,000  Level Washington Center
03:07PM 36.4608 -76.5708 33° Northeast 281 323 21,000  Level Washington Center
03:08PM 36.5111 -76.5275 35° Northeast 271 312 21,000  Level Washington Center
03:08PM 36.5111 -76.5275 35° Northeast 271 312 21,000  Level Washington Center
03:08PM 36.5239 -76.5172 33° Northeast 278 320 21,000  Level Washington Center
03:08PM 36.5239 -76.5172 33° Northeast 278 320 21,000  Level Washington Center
03:09PM 36.5764 -76.4764 32° Northeast 276 318 21,000  Level Washington Center
03:09PM 36.5764 -76.4764 32° Northeast 276 318 21,000  Level Washington Center
03:09PM 36.5911 -76.4639 34° Northeast 277 319 21,000  Level Washington Center
03:09PM 36.5911 -76.4639 34° Northeast 277 319 21,000  Level Washington Center
03:10PM 36.6478 -76.4203 32° Northeast 281 323 21,000  Level Washington Center
03:10PM 36.6478 -76.4203 32° Northeast 281 323 21,000  Level Washington Center
03:10PM 36.6581 -76.4075 45° Northeast 279 321 21,000  Level Washington Center
03:10PM 36.6581 -76.4075 45° Northeast 279 321 21,000  Level Washington Center
03:11PM 36.7106 -76.3614 35° Northeast 281 323 21,000  Level Washington Center
03:11PM 36.7106 -76.3614 35° Northeast 281 323 21,000  Level Washington Center
03:11PM 36.7211 -76.3539 30° Northeast 276 318 21,000  Level Washington Center
03:11PM 36.7211 -76.3539 30° Northeast 276 318 21,000  Level Washington Center
03:12PM 36.7756 -76.2997 39° Northeast 281 323 21,000  Level Washington Center
03:12PM 36.7756 -76.2997 39° Northeast 281 323 21,000  Level Washington Center
03:12PM 36.7842 -76.2922 35° Northeast 278 320 21,000  Level Washington Center
03:12PM 36.7842 -76.2922 35° Northeast 278 320 21,000  Level Washington Center
03:13PM 36.8386 -76.2433 36° Northeast 281 323 21,000  Level Washington Center
03:13PM 36.8386 -76.2433 36° Northeast 281 323 21,000  Level Washington Center
03:13PM 36.8447 -76.2408 18° North 278 320 21,000  Level Washington Center
03:13PM 36.8447 -76.2408 18° North 278 320 21,000  Level Washington Center
03:14PM 36.9056 -76.1867 35° Northeast 281 323 21,000  Level Washington Center
03:14PM 36.9056 -76.1867 35° Northeast 281 323 21,000  Level Washington Center
03:14PM 36.9078 -76.1894 315° West 279 321 21,000  Level Washington Center
03:14PM 36.9078 -76.1894 315° West 279 321 21,000 -180 Level Washington Center
03:15PM 36.9747 -76.1508 25° Northeast 279 321 20,900 -180 Descending Washington Center
03:15PM 36.9747 -76.1508 25° Northeast 279 321 20,900  Level Washington Center
03:15PM 36.9850 -76.1483 11° North 279 321 20,900  Level Washington Center
03:15PM 36.9850 -76.1483 11° North 279 321 20,900 120 Level Washington Center
03:16PM 37.0458 -76.1097 27° Northeast 279 321 21,000 120 Climbing Washington Center
03:16PM 37.0458 -76.1097 27° Northeast 279 321 21,000  Level Washington Center
03:16PM 37.0561 -76.1047 21° North 276 318 21,000  Level Washington Center
03:16PM 37.0561 -76.1047 21° North 276 318 21,000 -180 Level Washington Center
03:17PM 37.1147 -76.0736 23° Northeast 280 322 20,900 -180 Descending Washington Center
03:17PM 37.1147 -76.0736 23° Northeast 280 322 20,900 360 Level Washington Center
03:17PM 37.1272 -76.0711 North 278 320 21,000 360 Climbing Washington Center
03:17PM 37.1272 -76.0711 North 278 320 21,000  Level Washington Center
03:18PM 37.1919 -76.0378 22° Northeast 280 322 21,000  Level Washington Center
03:18PM 37.1919 -76.0378 22° Northeast 280 322 21,000  Level Washington Center
03:19PM 37.1983 -76.0378 360° North 274 315 21,000  Level Washington Center
03:19PM 37.1983 -76.0378 360° North 274 315 21,000  Level Washington Center
03:19PM 37.2611 -76.0017 25° Northeast 280 322 21,000  Level Washington Center
03:19PM 37.2611 -76.0017 25° Northeast 280 322 21,000  Level Washington Center
03:20PM 37.2736 -75.9964 19° North 278 320 21,000  Level Washington Center
03:20PM 37.2736 -75.9964 19° North 278 320 21,000  Level Washington Center
03:20PM 37.3342 -75.9653 22° Northeast 280 322 21,000  Level Washington Center
03:20PM 37.3342 -75.9653 22° Northeast 280 322 21,000  Level Washington Center
03:21PM 37.3447 -75.9575 30° Northeast 277 319 21,000  Level Washington Center
03:21PM 37.3447 -75.9575 30° Northeast 277 319 21,000  Level Washington Center
03:21PM 37.3989 -75.9317 21° North 311 358 21,000  Level Washington Center
03:21PM 37.3989 -75.9317 21° North 311 358 21,000  Level Washington Center
03:22PM 37.4678 -75.8928 24° Northeast 306 352 21,000  Level Washington Center
03:22PM 37.4678 -75.8928 24° Northeast 306 352 21,000  Level Washington Center
03:23PM 37.5367 -75.8536 24° Northeast 281 323 21,000  Level Washington Center
03:23PM 37.5367 -75.8536 24° Northeast 281 323 21,000  Level Washington Center
03:24PM 37.5994 -75.7964 36° Northeast 274 315 21,000  Level Washington Center
03:24PM 37.5994 -75.7964 36° Northeast 274 315 21,000  Level Washington Center
03:25PM 37.6642 -75.7414 34° Northeast 274 315 21,000  Level Washington Center
03:25PM 37.6642 -75.7414 34° Northeast 274 315 21,000 -120 Level Washington Center
03:26PM 37.7308 -75.6889 32° Northeast 279 321 20,900 -120 Descending Washington Center
03:26PM 37.7308 -75.6889 32° Northeast 279 321 20,900 60 Level Washington Center
03:27PM 37.7978 -75.6417 29° Northeast 279 321 21,000 60 Climbing Washington Center
03:27PM 37.7978 -75.6417 29° Northeast 279 321 21,000 -120 Level Washington Center
03:28PM 37.8644 -75.5917 31° Northeast 273 314 20,900 -120 Descending Washington Center
03:28PM 37.8644 -75.5917 31° Northeast 273 314 20,900 60 Level Washington Center
03:29PM 37.9292 -75.5417 31° Northeast 273 314 21,000 60 Climbing Washington Center
03:29PM 37.9292 -75.5417 31° Northeast 273 314 21,000  Level Washington Center
03:30PM 37.9978 -75.4917 30° Northeast 273 314 21,000  Level Washington Center
03:30PM 37.9978 -75.4917 30° Northeast 273 314 21,000  Level Washington Center
03:31PM 38.0644 -75.4414 31° Northeast 273 314 21,000  Level Washington Center
03:31PM 38.0644 -75.4414 31° Northeast 273 314 21,000  Level Washington Center
03:32PM 38.1292 -75.3778 38° Northeast 278 320 21,000  Level Washington Center
03:32PM 38.1292 -75.3778 38° Northeast 278 320 21,000  Level Washington Center
03:33PM 38.1875 -75.3117 42° Northeast 283 326 21,000  Level Washington Center
03:33PM 38.1875 -75.3117 42° Northeast 283 326 21,000  Level Washington Center
03:34PM 38.2497 -75.2453 40° Northeast 283 326 21,000  Level Washington Center
03:34PM 38.2497 -75.2453 40° Northeast 283 326 21,000  Level Washington Center
03:35PM 38.2997 -75.2003 35° Northeast 283 326 21,000  Level Washington Center
03:35PM 38.2997 -75.2003 35° Northeast 283 326 21,000  Level Washington Center
03:36PM 38.3683 -75.1308 38° Northeast 283 326 21,000  Level Washington Center
03:36PM 38.3683 -75.1308 38° Northeast 283 326 21,000  Level Washington Center
03:37PM 38.4306 -75.0642 40° Northeast 283 326 21,000  Level Washington Center
03:37PM 38.4306 -75.0642 40° Northeast 283 326 21,000  Level Washington Center
03:38PM 38.4947 -75.0056 36° Northeast 283 326 21,000  Level Washington Center
03:38PM 38.4947 -75.0056 36° Northeast 283 326 21,000  Level Washington Center
03:39PM 38.5569 -74.9464 37° Northeast 283 326 21,000  Level Washington Center
03:39PM 38.5569 -74.9464 37° Northeast 283 326 21,000 -120 Level Washington Center
03:40PM 38.6233 -74.8847 36° Northeast 283 326 20,900 -120 Descending Washington Center
03:40PM 38.6233 -74.8847 36° Northeast 283 326 20,900 60 Level Washington Center
03:41PM 38.6856 -74.8203 39° Northeast 283 326 21,000 60 Climbing Washington Center
03:41PM 38.6856 -74.8203 39° Northeast 283 326 21,000  Level Washington Center
03:42PM 38.7497 -74.7558 38° Northeast 288 331 21,000  Level Washington Center
03:42PM 38.7497 -74.7558 38° Northeast 288 331 21,000  Level Washington Center
03:48PM 39.1233 -74.3489 40° Northeast 282 325 21,000  Level New York Center
03:49PM 39.1836 -74.2850 39° Northeast 291 335 21,000  Level New York Center
03:50PM 39.2439 -74.2183 41° Northeast 291 335 21,000 -60 Level New York Center
03:51PM 39.3064 -74.1542 38° Northeast 291 335 20,900  Descending New York Center
03:52PM 39.3686 -74.0872 40° Northeast 291 335 21,000  Climbing New York Center
03:53PM 39.4331 -74.0231 38° Northeast 291 335 21,000  Level New York Center
03:54PM 39.4911 -73.9531 43° Northeast 286 329 21,000 -60 Level New York Center
03:55PM 39.5536 -73.8833 41° Northeast 291 335 20,900 -60 Descending New York Center
03:56PM 39.6117 -73.8106 44° Northeast 291 335 20,900  Level New York Center
03:57PM 39.6719 -73.7456 40° Northeast 291 335 21,000  Climbing New York Center
03:58PM 39.7319 -73.6753 42° Northeast 286 329 20,900  Descending New York Center
03:59PM 39.7919 -73.6047 42° Northeast 286 329 21,000  Climbing New York Center
04:00PM 39.8519 -73.5369 41° Northeast 286 329 21,000  Level New York Center
04:01PM 39.9119 -73.4689 41° Northeast 286 329 21,000  Level New York Center
04:02PM 39.9739 -73.4036 39° Northeast 286 329 21,000  Level New York Center
04:04PM 40.0800 -73.2861 40° Northeast 291 335 21,000  Level Boston Center
04:05PM 40.1450 -73.2272 35° Northeast 291 335 21,000  Level Boston Center
04:06PM 40.2058 -73.1600 40° Northeast 284 327 21,000  Level Boston Center
04:07PM 40.2728 -73.1064 31° Northeast 284 327 21,000  Level Boston Center
04:08PM 40.3231 -73.0578 36° Northeast 284 327 21,000  Level Boston Center
04:09PM 40.4006 -72.9906 33° Northeast 279 321 21,000  Level Boston Center
04:10PM 40.4653 -72.9367 32° Northeast 274 315 21,000 -60 Level Boston Center
04:11PM 40.5344 -72.8797 32° Northeast 279 321 20,900 -540 Descending Boston Center
04:12PM 40.5992 -72.8228 34° Northeast 279 321 20,000 -1,140 Descending Boston Center
04:13PM 40.6703 -72.7683 30° Northeast 284 327 18,700 -1,200 Descending Boston Center
04:14PM 40.7392 -72.7139 31° Northeast 300 345 17,600 -900 Descending Boston Center
04:15PM 40.8081 -72.6622 30° Northeast 300 345 17,000 -360 Descending Boston Center
04:16PM 40.8747 -72.6019 34° Northeast 289 333 16,900  Descending Boston Center
04:17PM 40.9394 -72.5444 34° Northeast 284 327 17,000  Climbing Boston Center
04:18PM 41.0042 -72.4842 35° Northeast 284 327 17,000 -60 Level Boston Center
04:19PM 41.0686 -72.4264 34° Northeast 284 327 16,900  Descending Boston Center
04:20PM 41.1333 -72.3628 37° Northeast 284 327 17,000  Climbing Boston Center
04:21PM 41.2000 -72.3078 32° Northeast 279 321 17,000  Level Boston Center
04:22PM 41.2728 -72.2439 33° Northeast 285 328 17,000 -540 Level Boston Center
04:23PM 41.3311 -72.1886 35° Northeast 285 328 16,000 -1,320 Descending Boston Center
04:24PM 41.4081 -72.1219 33° Northeast 285 328 14,400 -1,380 Descending Boston Center
04:25PM 41.4725 -72.0744 29° Northeast 285 328 13,300 -1,200 Descending Boston Center
04:26PM 41.5492 -72.0158 30° Northeast 290 334 12,100 -1,080 Descending Boston Center
04:27PM 41.5825 -72.0128 North 278 320 11,700 -720 Descending Boston Center
04:27PM 41.6161 -72.0125 360° North 268 308 11,400 -600 Descending Boston Center
04:28PM 41.6744 -72.0150 358° North 269 310 11,000 -420 Descending Boston Center
04:28PM 41.6972 -72.0092 11° North 268 308 11,000  Level Boston Center
04:29PM 41.7411 -72.0117 358° North 258 297 11,000  Level Boston Center
04:29PM 41.7619 -72.0086 North 263 303 11,000  Level Boston Center
04:30PM 41.8097 -72.0167 353° North 248 285 11,000  Level Boston Center
04:30PM 41.8306 -72.0167 360° North 254 292 11,000  Level Boston Center
04:31PM 41.8744 -72.0164 360° North 249 287 11,000  Level Boston Center
04:31PM 41.9056 -72.0161 360° North 249 287 11,000 -540 Level Boston Center
04:32PM 41.9433 -72.0297 345° North 253 291 10,500 -1,080 Descending Boston Center
04:33PM 42.0081 -72.0544 344° North 268 308 9,400 -1,560 Descending Boston Center
04:34PM 42.0789 -72.0736 349° North 270 311 7,600 -2,040 Descending Boston Center
04:35PM 42.1453 -72.0061 37° Northeast 255 293 5,200 -1,260 Descending Boston Center
04:36PM 42.1931 -71.9469 43° Northeast 226 260 5,000 -120 Descending Boston Center
04:37PM 42.2364 -71.8933 42° Northeast 214 246 5,000  Level Boston Center
04:39PM 42.3333 -71.7833 40° Northeast 215 247 5,000  Level KA90
04:40PM 42.3833 -71.7167 45° Northeast 230 265 5,100 -360 Climbing KA90
04:41PM 42.4333 -71.6500 45° Northeast 240 276 4,300 -960 Descending KA90
04:42PM 42.4667 -71.6000 48° Northeast 247 284 3,300 -720 Descending KA90
04:43PM 42.5167 -71.5333 44° Northeast 230 265 3,000 -480 Descending KA90
04:43PM 42.5167 -71.4667 90° East 232 267 2,400 -480 Descending KA90
04:45PM 42.5000 -71.3500 101° East 225 259 2,000 -240 Descending KA90
04:46PM 42.5000 -71.2667 90° East 218 251 1,900 -360 Descending KA90
04:47PM 42.4833 -71.2333 124° Southeast 139 160 1,400 -600 Descending KA90
04:49PM 42.4667 -71.2833 200° South  Level FlightAware Approximate
04:56PM 42.4699 -71.2890 200° South  Level Estimated